Time;durP1;ratioP1;P1;durP2;ratioP2;P2;SDS_P1;SDS_P2;PMS_P1;PMS_P2;Temp;Humidity;BMP_temperature;BMP_pressure;BME280_temperature;BME280_humidity;BME280_pressure;Samples;Min_cycle;Max_cycle;Signal;HPM_P1;HPM_P2
2023/12/08 00:01:34;;;;;;;;;;;;;;;7.31;53.75;99667.78;5017178;28;7351;-84
2023/12/08 00:03:59;;;;;;;;;;;;;;;7.31;53.87;99671.19;5029980;28;6842;-83
2023/12/08 00:06:25;;;;;;;;;;;;;;;7.31;53.88;99648.25;4996765;28;6934;-84
2023/12/08 00:08:50;;;;;;;;;;;;;;;7.31;53.25;99657.56;5012433;28;7175;-82
2023/12/08 00:11:16;;;;;;;;;;;;;;;7.31;54.00;99678.81;5025440;28;6803;-81
2023/12/08 00:13:41;;;;;;;;;;;;;;;7.31;53.44;99698.38;5034718;28;7171;-82
2023/12/08 00:16:08;;;;;;;;;;;;;;;7.32;53.61;99672.94;5043916;28;7299;-84
2023/12/08 00:18:34;;;;;;;;;;;;;;;7.34;53.57;99666.25;5021424;28;7026;-85
2023/12/08 00:20:59;;;;;;;;;;;;;;;7.34;53.37;99650.97;5014057;28;6871;-84
2023/12/08 00:23:25;;;;;;;;;;;;;;;7.38;53.35;99649.41;5031366;28;6925;-80
2023/12/08 00:25:50;;;;;;;;;;;;;;;7.38;53.12;99656.19;5019369;28;7082;-82
2023/12/08 00:28:16;;;;;;;;;;;;;;;7.42;52.91;99693.78;4997363;28;7947;-84
2023/12/08 00:30:41;;;;;;;;;;;;;;;7.42;53.23;99687.00;5039854;28;6779;-82
2023/12/08 00:33:07;;;;;;;;;;;;;;;7.43;53.39;99711.72;5019522;28;6791;-85
2023/12/08 00:35:32;;;;;;;;;;;;;;;7.47;52.77;99694.88;5006760;28;7509;-81
2023/12/08 00:37:58;;;;;;;;;;;;;;;7.47;53.69;99689.78;5037633;28;6783;-84
2023/12/08 00:40:23;;;;;;;;;;;;;;;7.49;53.23;99688.19;5035937;28;6836;-82
2023/12/08 00:42:49;;;;;;;;;;;;;;;7.52;52.72;99684.91;5037712;28;6849;-84
2023/12/08 00:45:15;;;;;;;;;;;;;;;7.52;53.27;99678.13;5012220;28;6852;-78
2023/12/08 00:47:40;;;;;;;;;;;;;;;7.56;53.65;99681.69;5032063;28;6787;-85
2023/12/08 00:50:07;;;;;;;;;;;;;;;7.57;53.64;99678.34;5016230;28;6799;-79
2023/12/08 00:52:33;;;;;;;;;;;;;;;7.59;52.48;99667.44;5034026;28;6949;-83
2023/12/08 00:54:59;;;;;;;;;;;;;;;7.59;53.39;99659.78;5015505;28;7165;-85
2023/12/08 00:57:24;;;;;;;;;;;;;;;7.58;52.71;99654.59;5017978;28;7159;-83
2023/12/08 00:59:50;;;;;;;;;;;;;;;7.56;53.16;99657.09;5018503;28;6788;-82
2023/12/08 01:02:15;;;;;;;;;;;;;;;7.54;53.77;99651.03;5035569;28;7237;-84
2023/12/08 01:04:41;;;;;;;;;;;;;;;7.52;53.18;99644.97;5021915;28;6787;-85
2023/12/08 01:07:06;;;;;;;;;;;;;;;7.49;53.22;99649.94;5008908;28;7135;-83
2023/12/08 01:09:32;;;;;;;;;;;;;;;7.49;52.98;99652.50;5011084;28;7000;-79
2023/12/08 01:11:57;;;;;;;;;;;;;;;7.47;53.04;99644.75;5012555;28;6953;-83
2023/12/08 01:14:23;;;;;;;;;;;;;;;7.47;52.89;99631.16;5024235;28;6952;-82
2023/12/08 01:16:48;;;;;;;;;;;;;;;7.45;53.26;99630.19;5026304;28;6859;-82
2023/12/08 01:19:14;;;;;;;;;;;;;;;7.42;53.47;99618.19;5025617;28;6844;-83
2023/12/08 01:21:40;;;;;;;;;;;;;;;7.41;53.91;99616.44;5038367;28;7011;-79
2023/12/08 01:24:06;;;;;;;;;;;;;;;7.37;53.46;99614.50;5022906;28;7219;-84
2023/12/08 01:26:31;;;;;;;;;;;;;;;7.36;53.74;99603.47;5031950;28;6982;-83
2023/12/08 01:28:57;;;;;;;;;;;;;;;7.34;54.44;99594.88;5027309;28;7153;-77
2023/12/08 01:31:22;;;;;;;;;;;;;;;7.33;54.32;99593.09;5048436;28;6902;-82
2023/12/08 01:33:48;;;;;;;;;;;;;;;7.30;54.69;99587.84;5021461;28;6958;-79
2023/12/08 01:36:14;;;;;;;;;;;;;;;7.27;54.21;99577.53;5050139;28;6791;-82
2023/12/08 01:38:46;;;;;;;;;;;;;;;7.25;54.88;99579.13;5030310;28;6971;-81
2023/12/08 01:41:13;;;;;;;;;;;;;;;7.21;54.22;99570.47;5023407;28;7103;-84
2023/12/08 01:43:39;;;;;;;;;;;;;;;7.20;53.92;99575.47;5020743;28;7297;-81
2023/12/08 01:46:05;;;;;;;;;;;;;;;7.19;54.18;99573.72;5017311;28;7112;-81
2023/12/08 01:48:31;;;;;;;;;;;;;;;7.20;54.80;99575.47;5043740;28;6976;-76
2023/12/08 01:50:57;;;;;;;;;;;;;;;7.21;54.08;99577.22;5029401;28;6964;-84
2023/12/08 01:53:23;;;;;;;;;;;;;;;7.24;54.59;99574.81;5012570;28;7031;-72
2023/12/08 01:55:48;;;;;;;;;;;;;;;7.25;54.14;99574.03;5013985;28;7185;-72
2023/12/08 01:58:14;;;;;;;;;;;;;;;7.27;54.42;99580.06;5012909;28;6776;-73
2023/12/08 02:00:40;;;;;;;;;;;;;;;7.29;54.37;99577.56;5035560;28;7244;-74
2023/12/08 02:03:07;;;;;;;;;;;;;;;7.34;54.23;99577.03;5020779;28;6965;-72
2023/12/08 02:05:37;;;;;;;;;;;;;;;7.36;54.76;99574.53;5016419;28;6807;-72
2023/12/08 02:08:02;;;;;;;;;;;;;;;7.40;54.44;99570.44;5032822;28;6867;-73
2023/12/08 02:10:28;;;;;;;;;;;;;;;7.44;54.67;99567.28;5030234;28;6791;-73
2023/12/08 02:12:53;;;;;;;;;;;;;;;7.46;54.59;99555.47;5013491;28;6946;-73
2023/12/08 02:15:19;;;;;;;;;;;;;;;7.49;55.08;99555.59;5006096;28;6960;-72
2023/12/08 02:17:45;;;;;;;;;;;;;;;7.49;54.80;99547.94;5005589;28;7155;-71
2023/12/08 02:20:11;;;;;;;;;;;;;;;7.48;54.44;99561.50;5017448;28;6875;-73
2023/12/08 02:22:37;;;;;;;;;;;;;;;7.45;55.27;99562.22;5025133;28;6812;-75
2023/12/08 02:25:03;;;;;;;;;;;;;;;7.44;55.21;99567.28;5012288;28;6823;-72
2023/12/08 02:27:29;;;;;;;;;;;;;;;7.39;54.35;99566.16;5017836;28;6952;-73
2023/12/08 02:29:56;;;;;;;;;;;;;;;7.35;55.12;99560.94;5038355;28;6879;-72
2023/12/08 02:32:47;;;;;;;;;;;;;;;7.31;54.38;99556.47;4999136;28;6968;-71
2023/12/08 02:35:18;;;;;;;;;;;;;;;7.29;55.04;99558.06;5033696;28;7229;-71
2023/12/08 02:37:46;;;;;;;;;;;;;;;7.26;55.88;99545.19;5022753;28;7128;-75
2023/12/08 02:40:12;;;;;;;;;;;;;;;7.24;55.75;99536.56;5021871;28;6799;-71
2023/12/08 02:42:37;;;;;;;;;;;;;;;7.22;55.43;99533.97;5015310;28;7234;-74
2023/12/08 02:45:03;;;;;;;;;;;;;;;7.21;55.01;99536.44;5022230;28;6780;-72
2023/12/08 02:47:29;;;;;;;;;;;;;;;7.18;55.46;99531.22;5014185;28;6981;-74
2023/12/08 02:49:55;;;;;;;;;;;;;;;7.13;56.15;99528.44;5012117;28;7346;-71
2023/12/08 02:52:20;;;;;;;;;;;;;;;7.12;56.31;99520.72;5014487;28;6940;-74
2023/12/08 02:54:45;;;;;;;;;;;;;;;7.11;55.75;99513.88;5030946;28;7098;-72
2023/12/08 02:57:11;;;;;;;;;;;;;;;7.10;56.36;99520.66;5037342;28;6776;-75
2023/12/08 02:59:37;;;;;;;;;;;;;;;7.08;55.58;99509.50;5030265;28;6993;-73
2023/12/08 03:02:02;;;;;;;;;;;;;;;7.08;56.38;99512.94;5021646;28;7204;-76
2023/12/08 03:04:28;;;;;;;;;;;;;;;7.05;56.07;99496.63;5036035;28;6844;-77
2023/12/08 03:06:53;;;;;;;;;;;;;;;7.04;55.69;99507.63;5010528;28;6792;-76
2023/12/08 03:09:18;;;;;;;;;;;;;;;7.02;56.11;99504.13;5031399;28;7951;-76
2023/12/08 03:11:44;;;;;;;;;;;;;;;7.00;56.33;99491.31;5016968;28;6950;-77
2023/12/08 03:14:09;;;;;;;;;;;;;;;6.98;56.70;99492.91;5011286;28;6807;-76
2023/12/08 03:16:35;;;;;;;;;;;;;;;6.98;56.79;99494.56;5017524;28;6795;-76
2023/12/08 03:19:00;;;;;;;;;;;;;;;6.97;56.65;99493.72;5016050;28;6903;-77
2023/12/08 03:21:27;;;;;;;;;;;;;;;6.98;56.02;99489.47;5022402;28;6970;-76
2023/12/08 03:23:52;;;;;;;;;;;;;;;6.96;56.95;99494.50;5020225;28;7458;-76
2023/12/08 03:26:18;;;;;;;;;;;;;;;6.95;57.39;99497.84;5039319;28;6937;-75
2023/12/08 03:28:44;;;;;;;;;;;;;;;6.95;57.46;99502.94;5013549;28;7161;-76
2023/12/08 03:31:29;;;;;;;;;;;;;;;6.94;57.63;99502.06;5013448;28;6804;-75
2023/12/08 03:33:55;;;;;;;;;;;;;;;6.94;57.66;99511.38;5016955;28;6828;-75
2023/12/08 03:36:21;;;;;;;;;;;;;;;6.93;57.74;99514.72;5013863;28;6917;-76
2023/12/08 03:38:46;;;;;;;;;;;;;;;6.94;57.46;99527.56;5011187;28;6967;-75
2023/12/08 03:41:12;;;;;;;;;;;;;;;6.94;57.96;99549.59;5015017;28;6795;-75
2023/12/08 03:43:38;;;;;;;;;;;;;;;6.91;57.77;99536.72;5014732;28;6788;-76
2023/12/08 03:46:07;;;;;;;;;;;;;;;6.90;57.69;99546.00;5021635;28;6807;-75
2023/12/08 03:48:34;;;;;;;;;;;;;;;6.91;57.24;99557.09;5022104;28;7006;-76
2023/12/08 03:51:00;;;;;;;;;;;;;;;6.90;57.79;99543.47;5014294;28;7185;-75
2023/12/08 03:53:26;;;;;;;;;;;;;;;6.91;57.71;99542.69;5013730;28;6795;-75
2023/12/08 03:55:51;;;;;;;;;;;;;;;6.94;57.47;99549.59;5014227;28;7483;-75
2023/12/08 03:58:16;;;;;;;;;;;;;;;6.92;57.95;99544.44;5021506;28;6800;-75
2023/12/08 04:00:42;;;;;;;;;;;;;;;6.92;57.90;99547.00;5011209;28;6927;-76
2023/12/08 04:03:07;;;;;;;;;;;;;;;6.91;57.56;99550.34;5021145;28;7907;-76
2023/12/08 04:05:33;;;;;;;;;;;;;;;6.89;58.54;99548.50;5004103;28;7185;-75
2023/12/08 04:07:58;;;;;;;;;;;;;;;6.89;57.83;99551.06;5011948;28;6966;-74
2023/12/08 04:10:24;;;;;;;;;;;;;;;6.90;57.97;99550.25;5012374;28;6787;-74
2023/12/08 04:12:49;;;;;;;;;;;;;;;6.91;58.13;99552.00;5021422;28;7880;-75
2023/12/08 04:15:15;;;;;;;;;;;;;;;6.89;57.66;99540.88;5013951;28;6772;-75
2023/12/08 04:17:40;;;;;;;;;;;;;;;6.85;58.44;99536.41;5037438;28;6787;-74
2023/12/08 04:20:06;;;;;;;;;;;;;;;6.85;58.72;99534.75;5017543;28;6969;-74
2023/12/08 04:22:32;;;;;;;;;;;;;;;6.88;58.38;99546.75;5035175;28;7238;-74
2023/12/08 04:24:57;;;;;;;;;;;;;;;6.89;58.03;99549.38;5005877;28;6979;-75
2023/12/08 04:27:23;;;;;;;;;;;;;;;6.90;57.92;99540.91;5030322;28;6795;-74
2023/12/08 04:29:49;;;;;;;;;;;;;;;6.91;58.15;99526.53;5036137;28;7221;-74
2023/12/08 04:32:14;;;;;;;;;;;;;;;6.91;57.97;99532.50;5021747;28;7155;-76
2023/12/08 04:34:40;;;;;;;;;;;;;;;6.92;58.64;99523.19;5023978;28;6871;-77
2023/12/08 04:37:05;;;;;;;;;;;;;;;6.96;58.10;99520.00;5007999;28;6791;-76
2023/12/08 04:39:31;;;;;;;;;;;;;;;6.97;58.51;99526.84;5012627;28;6800;-77
2023/12/08 04:41:56;;;;;;;;;;;;;;;6.99;58.56;99525.22;5014932;28;7161;-77
2023/12/08 04:44:22;;;;;;;;;;;;;;;6.98;58.73;99523.47;5025774;28;6931;-77
2023/12/08 04:46:47;;;;;;;;;;;;;;;7.01;58.96;99521.06;5016319;28;6851;-77
2023/12/08 04:49:13;;;;;;;;;;;;;;;7.04;58.81;99523.75;5036241;28;7091;-77
2023/12/08 04:51:42;;;;;;;;;;;;;;;7.10;58.81;99523.22;5011298;28;7009;-77
2023/12/08 04:54:08;;;;;;;;;;;;;;;7.13;59.41;99522.44;5012417;28;7176;-76
2023/12/08 04:56:33;;;;;;;;;;;;;;;7.13;58.68;99508.06;5033707;28;7928;-76
2023/12/08 04:58:59;;;;;;;;;;;;;;;7.17;58.13;99516.72;5014249;28;8548;-76
2023/12/08 05:01:24;;;;;;;;;;;;;;;7.20;59.31;99516.84;5002510;28;6950;-77
2023/12/08 05:03:50;;;;;;;;;;;;;;;7.23;58.90;99525.53;5016721;28;6948;-77
2023/12/08 05:06:16;;;;;;;;;;;;;;;7.26;59.06;99521.38;5016105;28;7177;-77
2023/12/08 05:08:41;;;;;;;;;;;;;;;7.29;59.43;99513.84;5040337;28;7783;-76
2023/12/08 05:11:07;;;;;;;;;;;;;;;7.31;58.83;99513.13;5014765;28;7787;-76
2023/12/08 05:13:33;;;;;;;;;;;;;;;7.35;58.70;99526.91;5023181;28;7106;-78
2023/12/08 05:15:58;;;;;;;;;;;;;;;7.36;58.79;99526.97;5038474;28;7029;-77
2023/12/08 05:18:24;;;;;;;;;;;;;;;7.41;59.60;99518.66;5017025;28;6792;-78
2023/12/08 05:20:49;;;;;;;;;;;;;;;7.41;59.54;99519.53;5010924;28;6954;-77
2023/12/08 05:23:15;;;;;;;;;;;;;;;7.44;58.35;99529.03;5025878;28;6780;-82
2023/12/08 05:25:40;;;;;;;;;;;;;;;7.47;58.69;99530.00;5012388;28;7245;-81
2023/12/08 05:28:06;;;;;;;;;;;;;;;7.50;59.04;99530.16;5011676;28;6952;-80
2023/12/08 05:30:31;;;;;;;;;;;;;;;7.53;58.39;99533.66;5021166;28;6916;-82
2023/12/08 05:32:57;;;;;;;;;;;;;;;7.55;58.72;99532.94;5044015;28;6788;-81
2023/12/08 05:35:22;;;;;;;;;;;;;;;7.59;58.77;99541.59;5016652;28;6874;-82
2023/12/08 05:37:48;;;;;;;;;;;;;;;7.61;58.52;99538.31;5017833;28;6946;-81
2023/12/08 05:40:13;;;;;;;;;;;;;;;7.64;59.19;99529.91;5025327;28;6787;-80
2023/12/08 05:42:39;;;;;;;;;;;;;;;7.63;58.10;99525.63;5020218;28;7203;-81
2023/12/08 05:45:05;;;;;;;;;;;;;;;7.63;59.48;99525.63;5026970;28;6963;-82
2023/12/08 05:47:30;;;;;;;;;;;;;;;7.64;58.82;99522.28;5040331;28;6796;-79
2023/12/08 05:49:56;;;;;;;;;;;;;;;7.63;58.08;99518.88;5012303;28;8069;-83
2023/12/08 05:52:21;;;;;;;;;;;;;;;7.65;58.89;99526.56;5044139;28;6791;-81
2023/12/08 05:54:47;;;;;;;;;;;;;;;7.65;58.70;99529.13;5020680;28;6902;-82
2023/12/08 05:57:12;;;;;;;;;;;;;;;7.67;59.13;99524.94;5010830;28;7113;-79
2023/12/08 05:59:38;;;;;;;;;;;;;;;7.69;59.26;99533.56;5017861;28;6975;-83
2023/12/08 06:02:03;;;;;;;;;;;;;;;7.67;58.96;99522.41;5016895;28;6826;-77
2023/12/08 06:04:29;;;;;;;;;;;;;;;7.69;59.44;99538.66;5003951;28;6967;-83
2023/12/08 06:06:54;;;;;;;;;;;;;;;7.70;58.37;99544.63;5017934;28;6864;-76
2023/12/08 06:09:20;;;;;;;;;;;;;;;7.69;59.18;99538.66;5008506;28;7042;-82
2023/12/08 06:11:45;;;;;;;;;;;;;;;7.72;58.92;99537.91;5043769;28;7207;-82
2023/12/08 06:14:11;;;;;;;;;;;;;;;7.74;59.15;99539.75;5024577;28;6956;-82
2023/12/08 06:16:36;;;;;;;;;;;;;;;7.76;59.72;99547.47;5021389;28;6775;-83
2023/12/08 06:19:04;;;;;;;;;;;;;;;7.77;59.42;99554.31;5013209;28;6991;-82
2023/12/08 06:21:29;;;;;;;;;;;;;;;7.79;59.30;99550.16;5022701;28;6811;-84
2023/12/08 06:23:56;;;;;;;;;;;;;;;7.80;59.55;99559.56;5017731;28;6795;-75
2023/12/08 06:26:21;;;;;;;;;;;;;;;7.82;59.71;99563.03;5017054;28;6934;-77
2023/12/08 06:28:47;;;;;;;;;;;;;;;7.86;59.17;99561.50;5026495;28;7312;-82
2023/12/08 06:31:12;;;;;;;;;;;;;;;7.89;59.25;99572.72;5018115;28;7255;-81
2023/12/08 06:33:38;;;;;;;;;;;;;;;7.94;59.21;99569.53;5024232;28;6948;-82
2023/12/08 06:36:05;;;;;;;;;;;;;;;7.95;59.37;99556.81;5015646;28;6922;-82
2023/12/08 06:38:30;;;;;;;;;;;;;;;7.98;59.17;99550.97;5007001;28;7203;-81
2023/12/08 06:40:55;;;;;;;;;;;;;;;7.99;59.00;99552.72;5017827;28;6851;-80
2023/12/08 06:43:21;;;;;;;;;;;;;;;8.01;59.54;99546.00;5016373;28;6783;-81
2023/12/08 06:45:47;;;;;;;;;;;;;;;8.03;59.86;99546.97;5009087;28;6942;-82
2023/12/08 06:48:12;;;;;;;;;;;;;;;8.05;59.19;99547.91;5041695;28;7519;-81
2023/12/08 06:50:38;;;;;;;;;;;;;;;8.07;59.26;99548.84;5017914;28;6995;-80
2023/12/08 06:53:03;;;;;;;;;;;;;;;8.08;59.76;99550.59;5012360;28;7379;-81
2023/12/08 06:55:29;;;;;;;;;;;;;;;8.10;59.42;99548.13;5018815;28;6768;-79
2023/12/08 06:57:54;;;;;;;;;;;;;;;8.09;59.44;99548.94;5020331;28;6860;-82
2023/12/08 07:00:20;;;;;;;;;;;;;;;8.11;60.00;99545.63;5020279;28;6795;-78
2023/12/08 07:02:46;;;;;;;;;;;;;;;8.14;59.51;99542.31;5014733;28;6893;-79
2023/12/08 07:05:12;;;;;;;;;;;;;;;8.16;59.60;99536.50;5041326;28;6800;-82
2023/12/08 07:07:37;;;;;;;;;;;;;;;8.22;59.42;99550.34;5024377;28;7038;-82
2023/12/08 07:10:03;;;;;;;;;;;;;;;8.26;59.38;99558.19;5019173;28;6938;-81
2023/12/08 07:12:28;;;;;;;;;;;;;;;8.30;59.75;99554.97;5021431;28;6917;-81
2023/12/08 07:14:55;;;;;;;;;;;;;;;8.35;60.38;99562.81;5035738;28;7129;-81
2023/12/08 07:17:20;;;;;;;;;;;;;;;8.39;60.62;99562.13;5018511;28;6971;-80
2023/12/08 07:19:46;;;;;;;;;;;;;;;8.40;60.04;99563.91;5041477;28;6851;-81
2023/12/08 07:22:11;;;;;;;;;;;;;;;8.43;59.79;99566.59;5045698;28;6931;-81
2023/12/08 07:24:40;;;;;;;;;;;;;;;8.45;59.66;99575.19;5018827;28;6942;-80
2023/12/08 07:27:06;;;;;;;;;;;;;;;8.47;60.65;99565.91;5024715;28;7058;-79
2023/12/08 07:29:31;;;;;;;;;;;;;;;8.54;60.14;99576.41;5013865;28;6953;-81
2023/12/08 07:31:57;;;;;;;;;;;;;;;8.58;60.73;99584.28;5015141;28;6966;-80
2023/12/08 07:34:22;;;;;;;;;;;;;;;8.64;60.38;99577.66;5021551;28;6844;-79
2023/12/08 07:36:48;;;;;;;;;;;;;;;8.68;59.52;99582.97;5037918;28;6993;-82
2023/12/08 07:39:13;;;;;;;;;;;;;;;8.71;59.65;99578.03;5020133;28;7026;-81
2023/12/08 07:41:39;;;;;;;;;;;;;;;8.74;60.10;99582.38;5028635;28;6848;-78
2023/12/08 07:44:04;;;;;;;;;;;;;;;8.81;60.07;99592.03;5036761;28;7007;-74
2023/12/08 07:46:31;;;;;;;;;;;;;;;8.83;60.86;99587.84;5030745;28;6783;-74
2023/12/08 07:48:56;;;;;;;;;;;;;;;8.90;59.98;99599.22;5024413;28;7053;-74
2023/12/08 07:51:21;;;;;;;;;;;;;;;8.94;60.43;99603.66;5025994;28;7213;-82
2023/12/08 07:53:47;;;;;;;;;;;;;;;8.96;60.95;99607.13;5020140;28;6848;-80
2023/12/08 07:56:13;;;;;;;;;;;;;;;8.99;60.54;99604.72;5019523;28;7195;-79
2023/12/08 07:58:39;;;;;;;;;;;;;;;9.04;60.78;99610.03;5013198;28;6780;-78
2023/12/08 08:01:05;;;;;;;;;;;;;;;9.08;60.65;99611.00;5021016;28;6988;-80
2023/12/08 08:03:30;;;;;;;;;;;;;;;9.13;61.17;99617.19;5042622;28;6966;-81
2023/12/08 08:05:56;;;;;;;;;;;;;;;9.18;60.77;99623.38;5021280;28;6779;-80
2023/12/08 08:08:21;;;;;;;;;;;;;;;9.22;60.90;99611.56;5013459;28;7558;-79
2023/12/08 08:10:47;;;;;;;;;;;;;;;9.26;60.73;99609.19;5024517;28;7720;-82
2023/12/08 08:13:12;;;;;;;;;;;;;;;9.31;60.96;99625.63;5023521;28;6779;-81
2023/12/08 08:15:38;;;;;;;;;;;;;;;9.35;61.25;99631.75;5024497;28;7027;-79
2023/12/08 08:18:04;;;;;;;;;;;;;;;9.38;60.61;99629.28;5023341;28;6791;-78
2023/12/08 08:20:29;;;;;;;;;;;;;;;9.42;60.81;99632.84;5046371;28;6988;-83
2023/12/08 08:22:55;;;;;;;;;;;;;;;9.44;61.49;99632.13;5002305;28;7043;-81
2023/12/08 08:25:20;;;;;;;;;;;;;;;9.49;61.09;99628.84;5010681;28;6968;-81
2023/12/08 08:27:46;;;;;;;;;;;;;;;9.51;61.15;99619.53;5022454;28;6931;-81
2023/12/08 08:30:13;;;;;;;;;;;;;;;9.56;60.98;99623.16;5020311;28;6784;-80
2023/12/08 08:32:38;;;;;;;;;;;;;;;9.58;61.35;99622.44;5006445;28;7257;-81
2023/12/08 08:35:05;;;;;;;;;;;;;;;9.62;61.31;99620.88;5004592;28;7057;-81
2023/12/08 08:37:30;;;;;;;;;;;;;;;9.64;60.99;99628.59;5023308;28;6978;-77
2023/12/08 08:39:56;;;;;;;;;;;;;;;9.67;61.09;99633.84;5025121;28;7187;-79
2023/12/08 08:42:21;;;;;;;;;;;;;;;9.69;61.24;99627.09;5023170;28;7415;-79
2023/12/08 08:44:47;;;;;;;;;;;;;;;9.72;60.67;99632.31;5022727;28;6869;-81
2023/12/08 08:47:12;;;;;;;;;;;;;;;9.75;61.34;99626.47;5017991;28;6860;-76
2023/12/08 08:49:38;;;;;;;;;;;;;;;9.77;60.99;99624.81;5013475;28;7834;-80
2023/12/08 08:52:04;;;;;;;;;;;;;;;9.79;61.25;99629.19;5045100;28;6852;-74
2023/12/08 08:54:29;;;;;;;;;;;;;;;9.85;61.43;99623.44;5018061;28;6776;-73
2023/12/08 08:56:55;;;;;;;;;;;;;;;9.88;61.09;99623.53;5015352;28;6787;-75
2023/12/08 08:59:20;;;;;;;;;;;;;;;9.92;61.26;99632.22;5017722;28;6795;-73
2023/12/08 09:01:46;;;;;;;;;;;;;;;9.97;61.33;99641.81;5017759;28;7039;-75
2023/12/08 09:04:11;;;;;;;;;;;;;;;10.00;61.49;99636.84;5015370;28;6791;-74
2023/12/08 09:06:37;;;;;;;;;;;;;;;10.04;61.20;99645.47;5040339;28;7129;-73
2023/12/08 09:09:04;;;;;;;;;;;;;;;10.07;61.58;99645.63;5012979;28;6807;-74
2023/12/08 09:11:29;;;;;;;;;;;;;;;10.12;61.79;99651.75;5023486;28;7252;-73
2023/12/08 09:13:55;;;;;;;;;;;;;;;10.16;61.41;99657.03;5019368;28;7128;-73
2023/12/08 09:16:20;;;;;;;;;;;;;;;10.20;61.20;99654.63;5003197;28;6952;-74
2023/12/08 09:18:46;;;;;;;;;;;;;;;10.24;61.71;99653.06;5012937;28;6784;-73
2023/12/08 09:21:12;;;;;;;;;;;;;;;10.26;62.18;99652.28;5014221;28;7237;-73
2023/12/08 09:23:37;;;;;;;;;;;;;;;10.32;61.39;99654.19;5039613;28;6776;-76
2023/12/08 09:26:03;;;;;;;;;;;;;;;10.36;61.96;99658.63;5002214;28;7083;-75
2023/12/08 09:28:29;;;;;;;;;;;;;;;10.42;61.58;99653.75;5040634;28;7176;-73
2023/12/08 09:30:54;;;;;;;;;;;;;;;10.49;61.78;99659.09;5018059;28;6969;-73
2023/12/08 09:33:20;;;;;;;;;;;;;;;10.53;61.83;99656.72;5019237;28;7197;-75
2023/12/08 09:35:46;;;;;;;;;;;;;;;10.58;61.74;99656.88;5018255;28;7255;-74
2023/12/08 09:38:11;;;;;;;;;;;;;;;10.63;61.83;99659.59;5017239;28;7237;-73
2023/12/08 09:40:38;;;;;;;;;;;;;;;10.66;61.63;99652.91;5032204;28;6932;-72
2023/12/08 09:43:16;;;;;;;;;;;;;;;10.73;61.83;99666.81;5010465;28;6799;-72
2023/12/08 09:45:44;;;;;;;;;;;;;;;10.78;61.78;99665.28;5043179;28;7260;-72
2023/12/08 09:48:12;;;;;;;;;;;;;;;10.84;62.00;99667.19;5013044;28;7520;-72
2023/12/08 09:50:38;;;;;;;;;;;;;;;10.89;61.55;99662.22;5015600;28;6816;-73
2023/12/08 09:53:04;;;;;;;;;;;;;;;10.94;62.01;99669.25;5030408;28;7378;-72
2023/12/08 09:55:32;;;;;;;;;;;;;;;10.97;62.17;99669.34;5018329;28;6884;-72
2023/12/08 09:57:58;;;;;;;;;;;;;;;11.02;61.89;99673.78;5025034;28;7051;-72
2023/12/08 10:00:24;;;;;;;;;;;;;;;11.04;61.56;99673.00;5024299;28;6872;-72
2023/12/08 10:02:50;;;;;;;;;;;;;;;11.08;61.56;99677.44;5018940;28;6780;-73
2023/12/08 10:05:15;;;;;;;;;;;;;;;11.10;61.95;99680.91;5007746;28;6966;-73
2023/12/08 10:07:43;;;;;;;;;;;;;;;11.13;61.76;99687.84;5002753;28;7388;-73
2023/12/08 10:10:09;;;;;;;;;;;;;;;11.16;61.82;99685.38;5017970;28;7348;-74
2023/12/08 10:12:35;;;;;;;;;;;;;;;11.16;61.96;99689.66;5008716;28;6973;-73
2023/12/08 10:15:01;;;;;;;;;;;;;;;11.18;61.70;99676.03;4994632;28;6996;-73
2023/12/08 10:17:27;;;;;;;;;;;;;;;11.19;61.29;99692.31;5017985;28;7155;-73
2023/12/08 10:20:10;;;;;;;;;;;;;;;11.23;62.24;99686.44;5018806;28;6851;-73
2023/12/08 10:22:51;;;;;;;;;;;;;;;11.25;61.43;99685.69;5016196;28;7354;-73
2023/12/08 10:25:22;;;;;;;;;;;;;;;11.32;61.53;99673.06;5021678;28;7018;-73
2023/12/08 10:27:53;;;;;;;;;;;;;;;11.36;61.70;99677.47;5016783;28;7193;-73
2023/12/08 10:30:20;;;;;;;;;;;;;;;11.39;61.73;99685.25;5011860;28;6808;-74
2023/12/08 10:32:46;;;;;;;;;;;;;;;11.43;61.37;99679.44;5021004;28;7223;-74
2023/12/08 10:35:12;;;;;;;;;;;;;;;11.45;61.46;99685.47;5035005;28;6925;-73
2023/12/08 10:37:39;;;;;;;;;;;;;;;11.47;61.90;99688.97;5017494;28;6800;-74
2023/12/08 10:40:07;;;;;;;;;;;;;;;11.49;61.85;99684.78;5035443;28;6803;-73
2023/12/08 10:42:33;;;;;;;;;;;;;;;11.49;61.67;99683.88;5024295;28;6784;-73
2023/12/08 10:44:59;;;;;;;;;;;;;;;11.50;61.59;99681.38;5017960;28;6944;-73
2023/12/08 10:47:25;;;;;;;;;;;;;;;11.51;61.74;99700.19;5018554;28;6849;-73
2023/12/08 10:49:53;;;;;;;;;;;;;;;11.51;61.60;99692.50;5019405;28;6779;-73
2023/12/08 10:52:21;;;;;;;;;;;;;;;11.51;62.03;99695.97;5014726;28;8299;-73
2023/12/08 10:54:47;;;;;;;;;;;;;;;11.52;61.64;99690.00;5024882;28;6968;-73
2023/12/08 10:57:12;;;;;;;;;;;;;;;11.56;61.99;99687.53;5014919;28;6779;-73
2023/12/08 10:59:41;;;;;;;;;;;;;;;11.59;62.06;99688.50;5021399;28;7996;-73
2023/12/08 11:02:20;;;;;;;;;;;;;;;11.62;62.10;99693.72;5010320;28;7072;-74
2023/12/08 11:04:53;;;;;;;;;;;;;;;11.67;62.01;99699.00;5025992;28;6811;-74
2023/12/08 11:07:27;;;;;;;;;;;;;;;11.73;62.31;99703.44;5016510;28;6801;-74
2023/12/08 11:09:57;;;;;;;;;;;;;;;11.79;61.98;99703.66;5017398;28;6800;-73
2023/12/08 11:12:25;;;;;;;;;;;;;;;11.83;61.41;99712.34;5005696;28;8037;-73
2023/12/08 11:15:00;;;;;;;;;;;;;;;11.86;61.18;99709.84;5017699;28;6851;-73
2023/12/08 11:17:59;;;;;;;;;;;;;;;11.89;61.56;99710.84;5015504;28;6969;-73
2023/12/08 11:20:24;;;;;;;;;;;;;;;11.92;61.79;99710.06;5004448;28;7008;-73
2023/12/08 11:22:50;;;;;;;;;;;;;;;11.94;61.58;99705.84;5021894;28;7037;-73
2023/12/08 11:25:34;;;;;;;;;;;;;;;11.95;60.84;99711.03;5034724;28;6799;-73
2023/12/08 11:28:19;;;;;;;;;;;;;;;11.95;61.38;99710.16;5021782;28;7051;-73
2023/12/08 11:30:53;;;;;;;;;;;;;;;11.97;61.06;99705.94;5013630;28;7003;-73
2023/12/08 11:33:32;;;;;;;;;;;;;;;11.99;60.96;99711.13;5036280;28;6902;-74
2023/12/08 11:36:09;;;;;;;;;;;;;;;11.99;61.28;99709.44;5004448;28;7003;-74
2023/12/08 11:38:34;;;;;;;;;;;;;;;12.00;61.63;99707.72;4995142;28;7075;-74
2023/12/08 11:41:00;;;;;;;;;;;;;;;12.01;61.49;99700.06;5016518;28;6812;-74
2023/12/08 11:43:27;;;;;;;;;;;;;;;12.04;60.93;99696.78;5014150;28;6876;-73
2023/12/08 11:45:52;;;;;;;;;;;;;;;12.08;61.11;99707.19;5011906;28;8477;-74
2023/12/08 11:48:19;;;;;;;;;;;;;;;12.12;61.08;99712.41;5029529;28;6846;-73
2023/12/08 11:50:46;;;;;;;;;;;;;;;12.16;61.39;99714.22;5020095;28;6807;-75
2023/12/08 11:53:12;;;;;;;;;;;;;;;12.20;61.66;99714.38;5037564;28;6804;-75
2023/12/08 11:55:39;;;;;;;;;;;;;;;12.26;61.19;99710.25;5036457;28;7232;-73
2023/12/08 11:58:06;;;;;;;;;;;;;;;12.29;61.25;99708.66;5020399;28;6876;-73
2023/12/08 12:00:37;;;;;;;;;;;;;;;12.32;61.57;99708.75;5009623;28;7327;-73
2023/12/08 12:03:05;;;;;;;;;;;;;;;12.35;61.15;99707.97;5008419;28;7067;-74
2023/12/08 12:05:30;;;;;;;;;;;;;;;12.40;61.49;99713.25;5013099;28;7877;-74
2023/12/08 12:07:57;;;;;;;;;;;;;;;12.42;61.23;99717.59;5012498;28;6784;-73
2023/12/08 12:10:32;;;;;;;;;;;;;;;12.45;61.05;99717.69;5012108;28;6828;-74
2023/12/08 12:13:06;;;;;;;;;;;;;;;12.48;61.49;99722.06;5009967;28;7185;-73
2023/12/08 12:15:35;;;;;;;;;;;;;;;12.52;60.60;99723.88;5022392;28;7907;-74
2023/12/08 12:18:02;;;;;;;;;;;;;;;12.56;60.77;99728.28;5019580;28;6831;-74
2023/12/08 12:20:30;;;;;;;;;;;;;;;12.60;60.99;99726.66;5020467;28;6967;-73
2023/12/08 12:22:56;;;;;;;;;;;;;;;12.61;61.26;99729.28;5035769;28;7006;-77
2023/12/08 12:25:22;;;;;;;;;;;;;;;12.63;61.07;99722.47;5030030;28;6946;-77
2023/12/08 12:27:47;;;;;;;;;;;;;;;12.66;60.90;99726.84;5012259;28;6799;-75
2023/12/08 12:30:14;;;;;;;;;;;;;;;12.68;61.10;99729.47;5006678;28;6994;-76
2023/12/08 12:32:40;;;;;;;;;;;;;;;12.70;60.77;99732.94;5013324;28;7027;-76
2023/12/08 12:35:07;;;;;;;;;;;;;;;12.72;60.23;99736.44;5013199;28;6864;-75
2023/12/08 12:37:33;;;;;;;;;;;;;;;12.75;60.96;99736.53;5012517;28;8644;-74
2023/12/08 12:39:59;;;;;;;;;;;;;;;12.75;60.68;99731.41;5011054;28;7169;-76
2023/12/08 12:42:24;;;;;;;;;;;;;;;12.76;60.41;99736.56;4996872;28;7020;-77
2023/12/08 12:44:50;;;;;;;;;;;;;;;12.74;60.32;99743.38;5031437;28;6784;-77
2023/12/08 12:47:24;;;;;;;;;;;;;;;12.75;60.87;99737.41;5017146;28;6846;-76
2023/12/08 12:50:00;;;;;;;;;;;;;;;12.76;60.21;99751.13;4994972;28;7016;-77
2023/12/08 12:52:27;;;;;;;;;;;;;;;12.76;60.44;99743.41;5015940;28;7299;-77
2023/12/08 12:54:54;;;;;;;;;;;;;;;12.76;60.06;99743.41;5012368;28;7001;-78
2023/12/08 12:57:40;;;;;;;;;;;;;;;12.75;59.81;99742.53;5014320;28;7214;-77
2023/12/08 13:00:09;;;;;;;;;;;;;;;12.76;60.84;99749.41;5021900;28;7034;-75
2023/12/08 13:02:35;;;;;;;;;;;;;;;12.79;60.46;99761.50;5004819;28;7267;-76